Aviation Digital Data Service (ADDS)

Output produced by METARs form (0654 UTC 27 September 2016)
found at http://aviationweather.gov/adds/metars/
 
KINT 270521Z 2706/2806 20005KT 6SM -RA BR BKN004 OVC040 
     FM271500 20005KT P6SM OVC015 
     FM271800 20004KT P6SM VCSH BKN050 
     TEMPO 2721/2724 3SM -TSRA BKN030CB